Time;durP1;ratioP1;P1;durP2;ratioP2;P2;SDS_P1;SDS_P2;PMS_P1;PMS_P2;Temp;Humidity;BMP_temperature;BMP_pressure;BME280_temperature;BME280_humidity;BME280_pressure;Samples;Min_cycle;Max_cycle;Signal;HPM_P1;HPM_P2
2022/12/10 00:01:09;;;;;;;76.03;26.42;;;3.70;99.90;;;;;;5012406;28;20124;-84
2022/12/10 00:03:35;;;;;;;77.43;26.08;;;3.80;99.90;;;;;;5012026;28;20042;-84
2022/12/10 00:06:07;;;;;;;84.93;27.02;;;3.80;99.90;;;;;;5012254;28;20479;-84
2022/12/10 00:08:33;;;;;;;73.25;26.08;;;3.70;99.90;;;;;;5012624;28;20048;-84
2022/12/10 00:11:01;;;;;;;79.72;27.27;;;3.70;99.90;;;;;;5012472;28;20026;-84
2022/12/10 00:13:27;;;;;;;74.03;24.92;;;3.80;99.90;;;;;;5012734;28;20124;-84
2022/12/10 00:15:53;;;;;;;77.95;27.33;;;3.80;99.90;;;;;;5012991;28;20157;-85
2022/12/10 00:18:18;;;;;;;70.18;24.83;;;3.80;99.90;;;;;;5012849;28;20022;-86
2022/12/10 00:20:44;;;;;;;84.15;26.95;;;3.80;99.90;;;;;;5011303;28;20060;-84
2022/12/10 00:23:09;;;;;;;69.75;25.17;;;3.80;99.90;;;;;;5012397;28;20029;-84
2022/12/10 00:25:35;;;;;;;71.32;24.05;;;3.70;99.90;;;;;;5012345;28;20048;-84
2022/12/10 00:28:01;;;;;;;76.20;25.65;;;3.70;99.90;;;;;;5013390;28;20107;-85
2022/12/10 00:30:26;;;;;;;72.00;25.17;;;3.80;99.90;;;;;;5012504;28;20032;-85
2022/12/10 00:32:52;;;;;;;73.63;24.85;;;3.80;99.90;;;;;;5012692;28;20112;-85
2022/12/10 00:35:18;;;;;;;75.93;25.00;;;3.80;99.90;;;;;;5012403;28;20029;-84
2022/12/10 00:37:43;;;;;;;71.57;25.45;;;3.90;99.90;;;;;;5013191;28;20041;-84
2022/12/10 00:40:12;;;;;;;71.47;25.75;;;4.00;99.90;;;;;;5015080;28;20072;-86
2022/12/10 00:42:38;;;;;;;63.92;23.77;;;4.00;99.90;;;;;;5024869;28;20468;-84
2022/12/10 00:45:04;;;;;;;70.75;25.13;;;4.00;99.90;;;;;;5024951;28;20041;-84
2022/12/10 00:47:30;;;;;;;65.93;24.70;;;4.00;99.90;;;;;;5023659;28;20376;-84
2022/12/10 00:50:02;;;;;;;69.05;24.35;;;4.00;99.90;;;;;;5020414;28;20065;-84
2022/12/10 00:52:29;;;;;;;70.07;25.45;;;4.00;99.90;;;;;;5013326;28;20363;-83
2022/12/10 00:54:54;;;;;;;64.18;23.50;;;4.00;99.90;;;;;;5013867;28;20026;-84
2022/12/10 00:57:20;;;;;;;70.60;24.92;;;4.00;99.90;;;;;;5013278;28;20045;-81
2022/12/10 00:59:45;;;;;;;68.95;23.38;;;3.90;99.90;;;;;;5012016;28;20034;-81
2022/12/10 01:02:11;;;;;;;60.30;22.48;;;3.90;99.90;;;;;;5011687;28;20025;-82
2022/12/10 01:04:37;;;;;;;65.30;23.27;;;3.90;99.90;;;;;;5011039;28;20531;-82
2022/12/10 01:07:02;;;;;;;68.18;24.55;;;3.90;99.90;;;;;;5010530;28;20034;-83
2022/12/10 01:09:30;;;;;;;62.25;22.50;;;3.80;99.90;;;;;;5010387;28;20030;-82
2022/12/10 01:11:57;;;;;;;66.03;22.33;;;3.80;99.90;;;;;;5010190;28;20089;-83
2022/12/10 01:14:31;;;;;;;61.28;22.45;;;3.80;99.90;;;;;;5011113;28;20030;-81
2022/12/10 01:16:59;;;;;;;72.30;25.02;;;3.80;99.90;;;;;;5011752;28;20029;-80
2022/12/10 01:19:25;;;;;;;60.85;21.10;;;3.70;99.90;;;;;;5011528;28;20034;-82
2022/12/10 01:21:55;;;;;;;58.33;21.23;;;3.70;99.90;;;;;;5011379;28;20034;-82
2022/12/10 01:24:23;;;;;;;59.70;20.92;;;3.70;99.90;;;;;;5010158;28;20683;-82
2022/12/10 01:26:48;;;;;;;;;;;3.70;99.90;;;;;;5010753;28;20030;-82
2022/12/10 01:29:14;;;;;;;61.65;21.00;;;3.70;99.90;;;;;;5011651;28;19959;-81
2022/12/10 01:31:40;;;;;;;63.83;21.83;;;3.80;99.90;;;;;;5011474;28;20102;-80
2022/12/10 01:34:09;;;;;;;67.55;22.05;;;3.80;99.90;;;;;;5011252;28;20464;-83
2022/12/10 01:36:41;;;;;;;64.00;22.05;;;3.90;99.90;;;;;;5011219;28;20045;-83
2022/12/10 01:39:08;;;;;;;66.70;21.85;;;3.80;99.90;;;;;;5011785;28;20056;-84
2022/12/10 01:41:38;;;;;;;65.30;21.17;;;3.70;99.90;;;;;;5011238;28;20527;-84
2022/12/10 01:44:07;;;;;;;62.47;21.05;;;3.70;99.90;;;;;;5011617;28;20026;-83
2022/12/10 01:46:37;;;;;;;68.90;20.90;;;3.70;99.90;;;;;;5011759;28;20026;-84
2022/12/10 01:49:07;;;;;;;65.80;22.42;;;3.80;99.90;;;;;;5013982;28;20036;-83
2022/12/10 01:51:35;;;;;;;67.43;20.58;;;3.80;99.90;;;;;;5015198;28;20026;-83
2022/12/10 01:54:03;;;;;;;65.88;20.83;;;3.70;99.90;;;;;;5015113;28;20443;-83
2022/12/10 01:56:31;;;;;;;;;;;3.80;99.90;;;;;;5015463;28;20030;-83
2022/12/10 01:59:00;;;;;;;66.35;20.63;;;3.90;99.90;;;;;;5015017;28;20339;-81
2022/12/10 02:01:37;;;;;;;72.30;21.55;;;3.80;99.90;;;;;;5014805;28;20077;-84
2022/12/10 02:04:28;;;;;;;65.07;22.63;;;3.70;99.90;;;;;;5013583;28;20042;-82
2022/12/10 02:07:25;;;;;;;64.43;21.35;;;3.70;99.90;;;;;;5014376;28;20502;-82
2022/12/10 02:10:11;;;;;;;67.15;21.05;;;3.80;99.90;;;;;;5014385;28;20398;-81
2022/12/10 02:12:54;;;;;;;60.35;20.33;;;3.80;99.90;;;;;;5002692;28;20071;-84
2022/12/10 02:15:29;;;;;;;58.60;20.30;;;3.80;99.90;;;;;;5014387;28;20360;-82
2022/12/10 02:18:07;;;;;;;54.90;19.60;;;3.80;99.90;;;;;;5014152;28;20087;-81
2022/12/10 02:20:37;;;;;;;65.05;20.40;;;3.80;99.90;;;;;;5012921;28;20026;-82
2022/12/10 02:23:09;;;;;;;53.03;19.38;;;3.70;99.90;;;;;;5014032;28;20432;-82
2022/12/10 02:26:04;;;;;;;55.08;18.38;;;3.80;99.90;;;;;;5014624;28;20117;-82
2022/12/10 02:28:52;;;;;;;49.58;17.50;;;3.80;99.80;;;;;;5014398;28;20109;-81
2022/12/10 02:31:22;;;;;;;50.75;18.65;;;3.90;99.70;;;;;;5014150;28;20472;-82
2022/12/10 02:33:53;;;;;;;57.78;19.38;;;3.80;99.40;;;;;;5013970;28;20475;-81
2022/12/10 02:36:22;;;;;;;54.10;17.38;;;3.70;99.50;;;;;;5025693;28;20037;-81
2022/12/10 02:38:50;;;;;;;52.05;18.13;;;3.70;99.50;;;;;;5033550;28;20021;-83
2022/12/10 02:41:21;;;;;;;56.53;20.45;;;3.70;99.70;;;;;;5033620;28;20032;-82
2022/12/10 02:43:50;;;;;;;57.05;18.98;;;3.70;99.80;;;;;;5033759;28;20018;-85
2022/12/10 02:46:16;;;;;;;61.55;20.20;;;3.70;99.90;;;;;;5032354;28;20025;-83
2022/12/10 02:48:42;;;;;;;57.90;19.90;;;3.70;99.90;;;;;;5033966;28;20038;-86
2022/12/10 02:51:09;;;;;;;61.05;20.30;;;3.80;99.80;;;;;;5033061;28;20026;-86
2022/12/10 02:53:44;;;;;;;59.65;19.40;;;3.80;99.80;;;;;;5032623;28;20121;-82
2022/12/10 02:56:36;;;;;;;61.63;20.02;;;3.90;99.80;;;;;;5032035;28;20395;-84
2022/12/10 02:59:47;;;;;;;58.17;19.23;;;3.80;99.90;;;;;;5032095;28;20017;-83
2022/12/10 03:02:19;;;;;;;55.05;19.58;;;3.90;99.90;;;;;;5022822;28;20124;-81
2022/12/10 03:04:57;;;;;;;53.88;18.42;;;3.70;99.80;;;;;;5033123;28;20053;-84
2022/12/10 03:07:33;;;;;;;56.33;18.67;;;3.80;99.90;;;;;;5032607;28;20030;-82
2022/12/10 03:10:06;;;;;;;51.53;17.73;;;3.70;99.90;;;;;;5032792;28;20026;-83
2022/12/10 03:12:41;;;;;;;55.50;18.77;;;3.70;99.90;;;;;;5032676;28;20049;-84
2022/12/10 03:15:09;;;;;;;56.65;18.83;;;3.70;99.90;;;;;;5032713;28;20036;-85
2022/12/10 03:17:38;;;;;;;53.35;18.70;;;3.70;99.80;;;;;;5032435;28;20044;-83
2022/12/10 03:20:10;;;;;;;52.33;17.88;;;3.60;99.80;;;;;;5032504;28;20029;-83
2022/12/10 03:22:38;;;;;;;52.95;18.48;;;3.60;99.90;;;;;;5032955;28;20029;-84
2022/12/10 03:25:06;;;;;;;51.47;17.40;;;3.60;99.90;;;;;;5031422;28;20052;-84
2022/12/10 03:27:33;;;;;;;55.28;19.52;;;3.60;99.90;;;;;;5031600;28;20092;-83
2022/12/10 03:29:59;;;;;;;45.72;17.08;;;3.70;99.90;;;;;;5031579;28;20053;-82
2022/12/10 03:32:27;;;;;;;48.85;17.85;;;3.70;99.70;;;;;;5033040;28;20021;-84
2022/12/10 03:34:56;;;;;;;54.90;19.02;;;3.70;99.60;;;;;;5033497;28;20030;-85
2022/12/10 03:37:23;;;;;;;49.30;17.77;;;3.70;99.50;;;;;;5033055;28;20034;-85
2022/12/10 03:39:50;;;;;;;41.95;16.38;;;3.80;99.50;;;;;;5033106;28;20033;-85
2022/12/10 03:42:16;;;;;;;45.63;17.20;;;3.80;99.40;;;;;;5033051;28;20034;-84
2022/12/10 03:44:42;;;;;;;46.03;17.70;;;3.80;99.30;;;;;;5033072;28;20463;-85
2022/12/10 03:47:11;;;;;;;46.33;17.63;;;3.90;99.10;;;;;;5031857;28;20490;-85
2022/12/10 03:49:39;;;;;;;44.40;17.63;;;3.80;99.20;;;;;;5033122;28;20018;-83
2022/12/10 03:52:05;;;;;;;40.45;15.85;;;3.80;99.10;;;;;;5032319;28;20431;-83
2022/12/10 03:54:31;;;;;;;41.72;16.08;;;3.80;99.20;;;;;;5032048;28;20046;-83
2022/12/10 03:56:56;;;;;;;42.80;16.48;;;3.70;99.20;;;;;;5032191;28;20110;-82
2022/12/10 03:59:22;;;;;;;39.08;15.25;;;3.70;99.20;;;;;;5032547;28;20109;-84
2022/12/10 04:01:48;;;;;;;40.13;15.27;;;3.80;99.20;;;;;;5033126;28;20086;-85
2022/12/10 04:04:13;;;;;;;39.83;15.82;;;3.60;99.20;;;;;;5031659;28;20382;-83
2022/12/10 04:06:41;;;;;;;43.58;15.95;;;3.60;99.30;;;;;;5031511;28;20267;-83
2022/12/10 04:09:09;;;;;;;43.50;16.25;;;3.60;99.30;;;;;;5032577;28;20071;-82
2022/12/10 04:11:35;;;;;;;42.40;16.13;;;3.70;99.30;;;;;;5031074;28;20025;-81
2022/12/10 04:16:45;;;;;;;42.30;16.40;;;3.70;99.40;;;;;;5032235;28;20462;-82
2022/12/10 04:19:13;;;;;;;42.75;16.48;;;3.70;99.20;;;;;;5030715;28;20041;-81
2022/12/10 04:27:29;;;;;;;52.28;16.73;;;3.60;99.20;;;;;;5031952;28;20203;-81
2022/12/10 04:29:56;;;;;;;38.50;15.02;;;3.60;99.20;;;;;;5031967;28;20033;-82
2022/12/10 04:32:23;;;;;;;44.72;16.27;;;3.50;99.20;;;;;;5031847;28;20033;-84
2022/12/10 04:34:50;;;;;;;41.80;16.92;;;3.50;99.30;;;;;;5031998;28;20029;-82
2022/12/10 04:37:16;;;;;;;52.17;16.58;;;3.50;99.30;;;;;;5031269;28;20041;-83
2022/12/10 04:39:43;;;;;;;42.83;15.45;;;3.40;99.30;;;;;;5030034;28;20030;-82
2022/12/10 04:42:08;;;;;;;40.67;15.52;;;3.50;99.30;;;;;;5031412;28;20029;-82
2022/12/10 04:44:35;;;;;;;37.53;14.75;;;3.40;99.30;;;;;;5029972;28;20370;-82
2022/12/10 04:47:01;;;;;;;45.45;15.90;;;3.40;99.40;;;;;;5030159;28;20582;-80
2022/12/10 04:49:27;;;;;;;46.67;16.42;;;3.40;99.30;;;;;;5031702;28;20029;-83
2022/12/10 04:51:52;;;;;;;39.70;15.50;;;3.30;99.30;;;;;;5029977;28;20037;-82
2022/12/10 04:54:19;;;;;;;36.80;15.23;;;3.40;99.30;;;;;;5018763;28;20482;-81
2022/12/10 04:56:45;;;;;;;40.90;15.02;;;3.40;99.30;;;;;;5011155;28;20022;-82
2022/12/10 04:59:11;;;;;;;42.42;14.90;;;3.40;99.20;;;;;;5011123;28;20113;-81
2022/12/10 05:01:38;;;;;;;36.15;14.77;;;3.50;99.20;;;;;;5011580;28;20057;-82
2022/12/10 05:04:06;;;;;;;38.58;14.73;;;3.40;99.10;;;;;;5010953;28;20040;-81
2022/12/10 05:06:32;;;;;;;38.75;15.00;;;3.30;99.20;;;;;;5010300;28;20068;-81
2022/12/10 05:08:58;;;;;;;38.58;14.63;;;3.30;99.10;;;;;;5010056;28;20026;-82
2022/12/10 05:11:26;;;;;;;43.20;14.35;;;3.30;99.10;;;;;;5009810;28;20113;-80
2022/12/10 05:13:53;;;;;;;38.53;14.52;;;3.30;99.10;;;;;;5011385;28;20080;-81
2022/12/10 05:16:21;;;;;;;38.95;14.73;;;3.30;99.10;;;;;;5010457;28;20034;-81
2022/12/10 05:18:47;;;;;;;36.20;14.05;;;3.20;99.10;;;;;;5011016;28;20030;-81
2022/12/10 05:21:15;;;;;;;36.42;15.10;;;3.20;99.10;;;;;;5011631;28;20025;-80
2022/12/10 05:23:45;;;;;;;34.80;14.50;;;3.20;99.00;;;;;;5013729;28;20038;-81
2022/12/10 05:26:14;;;;;;;40.00;14.50;;;3.20;99.10;;;;;;5014488;28;20452;-80
2022/12/10 05:28:42;;;;;;;37.72;13.95;;;3.20;99.00;;;;;;5015153;28;20109;-82
2022/12/10 05:31:23;;;;;;;35.53;13.68;;;3.30;99.00;;;;;;5014733;28;20026;-81
2022/12/10 05:33:50;;;;;;;40.78;14.95;;;3.20;99.10;;;;;;5013524;28;20037;-81
2022/12/10 05:36:18;;;;;;;34.70;14.13;;;3.20;99.00;;;;;;5014570;28;20034;-82
2022/12/10 05:38:44;;;;;;;39.17;15.35;;;3.30;98.90;;;;;;5014408;28;20539;-80
2022/12/10 05:41:15;;;;;;;35.90;13.55;;;3.20;98.80;;;;;;5013408;28;20034;-81
2022/12/10 05:43:42;;;;;;;37.55;14.48;;;3.10;98.90;;;;;;5015220;28;20038;-82
2022/12/10 05:46:12;;;;;;;25.53;11.17;;;3.10;99.00;;;;;;5014644;28;20037;-83
2022/12/10 05:48:38;;;;;;;31.70;12.15;;;3.10;99.00;;;;;;5014794;28;20026;-82
2022/12/10 05:51:08;;;;;;;34.28;13.40;;;3.20;98.90;;;;;;5014269;28;20030;-80
2022/12/10 05:53:34;;;;;;;32.72;12.57;;;3.20;98.80;;;;;;5014209;28;20454;-80
2022/12/10 05:56:08;;;;;;;30.52;12.40;;;3.00;98.80;;;;;;5013140;28;20440;-80
2022/12/10 05:58:35;;;;;;;31.70;12.85;;;3.00;99.00;;;;;;5014019;28;20026;-80
2022/12/10 06:01:14;;;;;;;36.95;14.02;;;3.00;99.20;;;;;;5014197;28;20033;-80
2022/12/10 06:03:40;;;;;;;31.20;12.73;;;3.10;99.00;;;;;;5014222;28;20041;-78
2022/12/10 06:06:06;;;;;;;29.77;13.02;;;3.10;98.90;;;;;;5014021;28;20045;-82
2022/12/10 06:08:33;;;;;;;33.22;13.25;;;3.20;98.90;;;;;;5014348;28;20030;-83
2022/12/10 06:11:03;;;;;;;31.27;13.17;;;3.10;98.80;;;;;;5014499;28;20113;-84
2022/12/10 06:13:28;;;;;;;31.35;12.23;;;3.10;98.70;;;;;;5010139;28;20303;-83
2022/12/10 06:15:54;;;;;;;32.75;11.65;;;3.20;98.60;;;;;;5010529;28;20042;-82
2022/12/10 06:18:20;;;;;;;29.40;12.43;;;3.10;98.60;;;;;;5014094;28;20034;-83
2022/12/10 06:20:46;;;;;;;29.77;11.68;;;3.10;98.60;;;;;;5014275;28;20124;-83
2022/12/10 06:23:12;;;;;;;27.88;11.88;;;3.10;98.50;;;;;;5014144;28;20061;-82
2022/12/10 06:25:39;;;;;;;29.88;12.57;;;3.10;98.60;;;;;;5013469;28;20037;-83
2022/12/10 06:28:05;;;;;;;24.73;12.15;;;3.10;98.60;;;;;;5014137;28;20040;-82
2022/12/10 06:30:30;;;;;;;24.17;10.38;;;3.20;98.60;;;;;;5014343;28;20030;-82
2022/12/10 06:32:56;;;;;;;30.83;12.15;;;3.10;98.50;;;;;;5011815;28;20087;-82
2022/12/10 06:35:22;;;;;;;29.08;12.25;;;3.10;98.60;;;;;;5012424;28;20098;-83
2022/12/10 06:37:49;;;;;;;30.50;13.07;;;3.00;98.60;;;;;;5013189;28;20079;-82
2022/12/10 06:40:15;;;;;;;25.60;11.23;;;3.00;98.70;;;;;;5014227;28;20074;-85
2022/12/10 06:42:40;;;;;;;34.17;13.35;;;3.10;98.60;;;;;;5013787;28;20476;-84
2022/12/10 06:45:07;;;;;;;34.40;12.70;;;3.00;98.50;;;;;;5015073;28;20124;-82
2022/12/10 06:47:32;;;;;;;35.65;13.60;;;3.00;98.60;;;;;;5017005;28;20121;-84
2022/12/10 06:49:58;;;;;;;35.88;14.60;;;3.00;98.70;;;;;;5014317;28;20058;-84
2022/12/10 06:52:25;;;;;;;35.53;14.73;;;3.10;98.60;;;;;;5013810;28;20038;-84
2022/12/10 06:54:50;;;;;;;35.88;13.73;;;3.00;98.60;;;;;;5012877;28;20029;-84
2022/12/10 06:57:16;;;;;;;34.70;13.23;;;3.10;98.60;;;;;;5012393;28;20487;-85
2022/12/10 06:59:42;;;;;;;35.30;14.00;;;3.00;98.50;;;;;;5012518;28;20067;-84
2022/12/10 07:02:09;;;;;;;33.00;13.43;;;3.00;98.50;;;;;;5013273;28;20026;-84
2022/12/10 07:04:35;;;;;;;31.95;13.52;;;3.00;98.50;;;;;;5013447;28;20052;-82
2022/12/10 07:07:01;;;;;;;34.10;13.65;;;3.00;98.50;;;;;;5011777;28;20038;-84
2022/12/10 07:09:26;;;;;;;38.38;14.70;;;2.90;98.50;;;;;;5012789;28;20476;-83
2022/12/10 07:11:52;;;;;;;31.92;13.93;;;2.90;98.50;;;;;;5012585;28;20517;-83
2022/12/10 07:14:18;;;;;;;29.88;13.60;;;3.00;98.50;;;;;;5012359;28;20095;-85
2022/12/10 07:16:45;;;;;;;37.88;14.48;;;2.90;98.50;;;;;;5013939;28;20021;-83
2022/12/10 07:19:12;;;;;;;33.35;13.68;;;3.00;98.50;;;;;;5013247;28;20630;-84
2022/12/10 07:21:40;;;;;;;36.67;15.00;;;2.90;98.50;;;;;;5013108;28;20463;-84
2022/12/10 07:24:10;;;;;;;33.53;14.38;;;2.90;98.50;;;;;;5014171;28;20058;-85
2022/12/10 07:26:38;;;;;;;35.17;14.88;;;2.90;98.50;;;;;;5013122;28;20036;-81
2022/12/10 07:29:05;;;;;;;32.92;13.10;;;2.80;98.50;;;;;;5011363;28;20026;-82
2022/12/10 07:31:35;;;;;;;34.38;14.43;;;2.80;98.60;;;;;;5011868;28;20121;-81
2022/12/10 07:34:00;;;;;;;37.95;14.45;;;2.80;98.70;;;;;;5012551;28;20431;-82
2022/12/10 07:36:27;;;;;;;33.90;13.52;;;2.70;98.70;;;;;;5011739;28;20026;-82
2022/12/10 07:38:53;;;;;;;32.65;14.00;;;2.70;98.70;;;;;;5012860;28;20029;-82
2022/12/10 07:41:20;;;;;;;32.90;12.75;;;2.80;98.70;;;;;;5012369;28;20034;-84
2022/12/10 07:43:46;;;;;;;33.55;13.38;;;2.80;98.70;;;;;;5012362;28;20041;-84
2022/12/10 07:46:23;;;;;;;33.63;14.75;;;2.90;98.60;;;;;;5012281;28;20461;-84
2022/12/10 07:48:49;;;;;;;32.22;12.88;;;2.80;98.50;;;;;;5011438;28;20045;-85
2022/12/10 07:51:16;;;;;;;29.38;12.15;;;2.90;98.50;;;;;;5011381;28;20030;-84
2022/12/10 07:53:43;;;;;;;29.50;12.65;;;2.80;98.50;;;;;;5011282;28;20029;-83
2022/12/10 07:56:09;;;;;;;35.47;13.23;;;2.90;98.50;;;;;;5012181;28;20488;-79
2022/12/10 07:58:35;;;;;;;34.17;14.27;;;2.80;98.40;;;;;;5012065;28;20452;-75
2022/12/10 08:01:13;;;;;;;33.88;14.13;;;2.90;98.40;;;;;;5010574;28;20034;-78
2022/12/10 08:03:39;;;;;;;34.33;13.55;;;2.90;98.40;;;;;;5011431;28;20022;-80
2022/12/10 08:06:07;;;;;;;33.60;14.10;;;2.90;98.50;;;;;;5010516;28;20316;-78
2022/12/10 08:08:34;;;;;;;36.03;14.20;;;2.90;98.50;;;;;;5011825;28;20030;-76
2022/12/10 08:11:01;;;;;;;34.17;14.32;;;2.90;98.50;;;;;;5011221;28;20040;-77
2022/12/10 08:13:28;;;;;;;39.60;15.68;;;2.90;98.50;;;;;;5011858;28;20053;-78
2022/12/10 08:15:53;;;;;;;36.13;13.57;;;3.00;98.60;;;;;;5011564;28;20128;-76
2022/12/10 08:18:20;;;;;;;38.47;14.65;;;2.90;98.50;;;;;;5010412;28;20488;-78
2022/12/10 08:20:46;;;;;;;47.70;15.52;;;2.90;98.60;;;;;;5011628;28;20037;-78
2022/12/10 08:23:11;;;;;;;40.58;15.80;;;2.90;98.70;;;;;;5011662;28;20056;-78
2022/12/10 08:25:37;;;;;;;39.50;14.93;;;2.90;98.70;;;;;;5010778;28;20034;-79
2022/12/10 08:28:03;;;;;;;42.13;15.30;;;2.80;98.70;;;;;;5010611;28;20088;-78
2022/12/10 08:30:30;;;;;;;37.40;13.40;;;2.90;98.80;;;;;;5011502;28;20053;-80
2022/12/10 08:32:56;;;;;;;39.00;14.30;;;2.90;98.80;;;;;;5011348;28;20037;-79
2022/12/10 08:35:21;;;;;;;46.25;17.00;;;2.90;98.80;;;;;;5010505;28;20443;-78
2022/12/10 08:37:47;;;;;;;46.97;16.55;;;2.90;98.70;;;;;;5011814;28;20057;-74
2022/12/10 08:40:13;;;;;;;40.78;15.38;;;3.00;98.90;;;;;;5011231;28;20026;-78
2022/12/10 08:42:39;;;;;;;43.22;15.20;;;3.00;98.70;;;;;;5011238;28;20034;-79
2022/12/10 08:45:05;;;;;;;48.03;17.90;;;3.00;98.70;;;;;;5010040;28;20030;-78
2022/12/10 08:47:31;;;;;;;43.35;16.67;;;3.00;98.80;;;;;;5011160;28;20108;-76
2022/12/10 08:49:56;;;;;;;45.40;16.23;;;3.00;98.80;;;;;;5010977;28;20034;-77
2022/12/10 08:52:22;;;;;;;39.92;15.45;;;3.00;98.80;;;;;;5011489;28;20423;-76
2022/12/10 08:54:48;;;;;;;43.60;16.27;;;3.10;98.80;;;;;;5011310;28;20091;-75
2022/12/10 08:57:14;;;;;;;35.63;15.30;;;3.10;98.80;;;;;;5012713;28;20026;-77
2022/12/10 08:59:40;;;;;;;40.75;16.35;;;3.20;98.70;;;;;;5015228;28;20030;-76
2022/12/10 09:02:07;;;;;;;41.72;15.43;;;3.20;98.50;;;;;;5014152;28;20025;-80
2022/12/10 09:04:33;;;;;;;38.78;14.02;;;3.20;98.50;;;;;;5015679;28;20422;-79
2022/12/10 09:06:58;;;;;;;39.45;14.90;;;3.20;98.60;;;;;;5015265;28;20030;-81
2022/12/10 09:09:24;;;;;;;39.60;15.10;;;3.10;98.60;;;;;;5014685;28;20510;-75
2022/12/10 09:11:50;;;;;;;34.63;14.02;;;3.10;98.70;;;;;;5013771;28;20121;-76
2022/12/10 09:14:15;;;;;;;42.53;16.40;;;3.20;98.70;;;;;;5014986;28;20103;-75
2022/12/10 09:16:41;;;;;;;36.45;14.60;;;3.20;98.70;;;;;;5015505;28;20172;-76
2022/12/10 09:19:07;;;;;;;41.05;16.67;;;3.20;98.60;;;;;;5014022;28;20030;-78
2022/12/10 09:21:33;;;;;;;40.03;15.60;;;3.10;98.70;;;;;;5015062;28;20038;-78
2022/12/10 09:23:59;;;;;;;44.38;16.20;;;3.00;98.70;;;;;;5013776;28;20030;-83
2022/12/10 09:26:25;;;;;;;41.35;16.25;;;3.10;98.80;;;;;;5014844;28;20025;-79
2022/12/10 09:28:51;;;;;;;41.25;16.05;;;3.10;98.80;;;;;;5015684;28;20351;-80
2022/12/10 09:31:19;;;;;;;34.25;14.88;;;3.10;98.80;;;;;;5015235;28;20109;-75
2022/12/10 09:33:46;;;;;;;37.08;14.00;;;3.10;98.70;;;;;;5013873;28;20121;-80
2022/12/10 09:36:14;;;;;;;43.42;18.73;;;3.00;98.80;;;;;;5013296;28;20424;-78
2022/12/10 09:38:41;;;;;;;39.65;15.65;;;3.10;98.70;;;;;;5014558;28;20049;-78
2022/12/10 09:41:32;;;;;;;40.33;15.48;;;3.10;98.70;;;;;;5014461;28;20030;-76
2022/12/10 09:44:11;;;;;;;39.55;15.32;;;3.10;98.80;;;;;;5014716;28;20040;-77
2022/12/10 09:46:56;;;;;;;41.67;16.20;;;3.10;98.70;;;;;;5014476;28;20436;-77
2022/12/10 09:49:47;;;;;;;38.15;15.20;;;3.10;98.70;;;;;;5014541;28;20045;-74
2022/12/10 09:52:17;;;;;;;35.83;14.95;;;3.10;98.80;;;;;;5014164;28;20026;-75
2022/12/10 09:54:57;;;;;;;38.47;14.23;;;3.20;98.70;;;;;;5013107;28;20050;-82
2022/12/10 09:57:39;;;;;;;41.72;14.70;;;3.20;98.80;;;;;;5014162;28;20117;-82
2022/12/10 10:00:29;;;;;;;48.45;20.67;;;3.20;98.80;;;;;;5013920;28;20026;-78
2022/12/10 10:03:01;;;;;;;45.05;19.10;;;3.20;98.90;;;;;;5013097;28;20045;-78
2022/12/10 10:05:40;;;;;;;41.00;16.40;;;3.20;98.90;;;;;;5013970;28;20037;-79
2022/12/10 10:08:31;;;;;;;38.13;14.80;;;3.30;98.90;;;;;;5013771;28;20468;-80
2022/12/10 10:10:59;;;;;;;33.83;14.90;;;3.40;98.90;;;;;;5014421;28;20492;-77
2022/12/10 10:13:28;;;;;;;;;;;3.40;98.70;;;;;;5013280;28;20053;-81
2022/12/10 10:15:54;;;;;;;34.92;14.07;;;3.40;98.60;;;;;;5013988;28;20283;-79
2022/12/10 10:18:36;;;;;;;35.53;14.35;;;3.30;98.50;;;;;;5012791;28;20116;-79
2022/12/10 10:21:07;;;;;;;34.20;15.38;;;3.30;98.70;;;;;;5012459;28;20034;-78
2022/12/10 10:23:33;;;;;;;41.85;16.17;;;3.20;98.80;;;;;;5014173;28;20449;-77
2022/12/10 10:25:59;;;;;;;36.92;15.25;;;3.30;98.70;;;;;;5015027;28;20452;-81
2022/12/10 10:28:26;;;;;;;40.65;17.15;;;3.30;98.60;;;;;;5010457;28;20511;-79
2022/12/10 10:30:54;;;;;;;44.90;17.17;;;3.30;98.70;;;;;;5009228;28;20026;-77
2022/12/10 10:33:20;;;;;;;37.85;15.95;;;3.30;98.90;;;;;;5012402;28;20110;-76
2022/12/10 10:36:00;;;;;;;34.40;15.43;;;3.30;98.80;;;;;;5013616;28;20036;-76
2022/12/10 10:38:30;;;;;;;35.47;14.88;;;3.30;98.60;;;;;;5012572;28;20053;-78
2022/12/10 10:41:02;;;;;;;35.47;13.73;;;3.20;98.60;;;;;;5012802;28;20213;-77
2022/12/10 10:43:41;;;;;;;36.47;15.35;;;3.30;98.60;;;;;;5013326;28;20034;-76
2022/12/10 10:46:15;;;;;;;36.50;14.35;;;3.20;98.60;;;;;;5012809;28;20142;-75
2022/12/10 10:48:41;;;;;;;32.20;14.65;;;3.30;98.70;;;;;;5012479;28;20026;-77
2022/12/10 10:51:15;;;;;;;35.03;14.80;;;3.30;98.60;;;;;;5013139;28;20034;-77
2022/12/10 10:53:45;;;;;;;36.70;15.23;;;3.30;98.90;;;;;;5012326;28;20652;-78
2022/12/10 10:56:23;;;;;;;36.78;15.05;;;3.30;98.60;;;;;;5013933;28;20069;-79
2022/12/10 10:59:01;;;;;;;36.55;15.50;;;3.20;98.60;;;;;;5013966;28;20104;-77
2022/12/10 11:01:49;;;;;;;34.95;15.10;;;3.20;98.70;;;;;;5013535;28;20046;-75
2022/12/10 11:04:17;;;;;;;32.60;15.13;;;3.30;98.60;;;;;;5011519;28;20589;-79
2022/12/10 11:06:43;;;;;;;37.50;14.82;;;3.40;99.00;;;;;;5011732;28;20066;-77
2022/12/10 11:09:21;;;;;;;34.45;14.65;;;3.40;98.60;;;;;;5012753;28;20455;-79
2022/12/10 11:11:57;;;;;;;33.35;15.18;;;3.30;98.40;;;;;;5011382;28;20054;-77
2022/12/10 11:14:31;;;;;;;33.25;14.35;;;3.30;98.50;;;;;;5012789;28;20038;-75
2022/12/10 11:17:02;;;;;;;33.50;14.52;;;3.40;98.50;;;;;;5012875;28;20034;-75
2022/12/10 11:19:28;;;;;;;33.13;14.38;;;3.30;98.50;;;;;;5011928;28;20184;-77
2022/12/10 11:21:54;;;;;;;27.85;12.05;;;3.40;98.50;;;;;;5012487;28;20427;-75
2022/12/10 11:24:20;;;;;;;29.88;13.05;;;3.50;98.50;;;;;;5008787;28;20117;-74
2022/12/10 11:27:30;;;;;;;33.72;13.63;;;3.40;98.30;;;;;;4994727;28;20034;-76
2022/12/10 11:30:04;;;;;;;31.52;13.07;;;3.40;98.10;;;;;;4996748;28;20030;-76
2022/12/10 11:32:45;;;;;;;29.02;11.93;;;3.40;98.40;;;;;;5012277;28;20333;-75
2022/12/10 11:35:12;;;;;;;29.17;12.45;;;3.30;98.20;;;;;;5011924;28;20364;-82
2022/12/10 11:38:16;;;;;;;32.22;13.60;;;3.30;98.10;;;;;;5012621;28;20050;-77
2022/12/10 11:41:00;;;;;;;29.83;12.57;;;3.30;98.10;;;;;;5011100;28;20054;-78
2022/12/10 11:43:48;;;;;;;32.75;12.60;;;3.30;98.20;;;;;;5027743;28;20038;-78
2022/12/10 11:46:39;;;;;;;36.47;13.82;;;3.40;98.30;;;;;;5011996;28;20034;-74
2022/12/10 11:49:23;;;;;;;33.33;14.02;;;3.40;98.30;;;;;;5007109;28;20034;-75
2022/12/10 11:52:27;;;;;;;29.98;13.45;;;3.50;98.30;;;;;;5007072;28;20176;-75
2022/12/10 11:55:27;;;;;;;32.38;13.57;;;3.40;98.30;;;;;;5011809;28;20038;-75
2022/12/10 11:58:22;;;;;;;29.30;13.07;;;3.40;98.30;;;;;;5011085;28;20053;-74
2022/12/10 12:01:00;;;;;;;31.45;13.52;;;3.40;98.30;;;;;;5007283;28;20035;-74
2022/12/10 12:03:47;;;;;;;29.88;13.82;;;3.30;98.40;;;;;;4991206;28;20124;-76
2022/12/10 12:06:32;;;;;;;32.55;13.23;;;3.40;98.50;;;;;;4991621;28;20065;-81
2022/12/10 12:09:16;;;;;;;32.05;14.27;;;3.40;98.40;;;;;;5001166;28;20071;-81
2022/12/10 12:12:18;;;;;;;28.40;12.65;;;3.40;98.50;;;;;;5007336;28;20469;-76
2022/12/10 12:14:45;;;;;;;29.15;12.55;;;3.40;98.40;;;;;;4998120;28;20440;-79
2022/12/10 12:17:22;;;;;;;28.88;12.88;;;3.40;98.30;;;;;;5010700;28;20029;-81
2022/12/10 12:19:58;;;;;;;32.47;13.40;;;3.40;98.30;;;;;;5012171;28;20109;-78
2022/12/10 12:22:31;;;;;;;34.10;13.52;;;3.40;98.30;;;;;;5011471;28;20663;-78
2022/12/10 12:25:06;;;;;;;35.83;13.80;;;3.40;98.60;;;;;;5011473;28;20119;-77
2022/12/10 12:28:02;;;;;;;32.22;14.00;;;3.40;98.40;;;;;;5011314;28;20030;-77
2022/12/10 12:30:33;;;;;;;25.33;11.35;;;3.40;98.40;;;;;;5024403;28;20041;-78
2022/12/10 12:33:10;;;;;;;29.17;12.63;;;3.50;98.30;;;;;;5006652;28;20093;-78
2022/12/10 12:35:49;;;;;;;32.55;13.85;;;3.50;98.10;;;;;;4990561;28;20038;-77
2022/12/10 12:38:31;;;;;;;35.28;14.00;;;3.40;98.20;;;;;;5009557;28;20069;-78
2022/12/10 12:41:06;;;;;;;29.88;12.88;;;3.40;98.20;;;;;;5009103;28;20090;-83
2022/12/10 12:43:34;;;;;;;38.80;14.75;;;3.40;98.20;;;;;;5012879;28;20037;-77
2022/12/10 12:46:03;;;;;;;36.33;14.75;;;3.40;98.20;;;;;;5012210;28;20029;-78
2022/12/10 12:48:45;;;;;;;37.28;15.20;;;3.40;98.30;;;;;;5012491;28;20030;-77
2022/12/10 12:51:27;;;;;;;33.00;14.15;;;3.50;98.30;;;;;;5012043;28;20038;-75
2022/12/10 12:53:53;;;;;;;32.83;14.32;;;3.40;98.40;;;;;;5010085;28;20026;-75
2022/12/10 12:56:51;;;;;;;36.00;14.48;;;3.40;98.50;;;;;;5011321;28;20044;-74
2022/12/10 12:59:29;;;;;;;34.97;13.52;;;3.50;98.50;;;;;;5011223;28;20040;-73
2022/12/10 13:02:30;;;;;;;37.58;14.40;;;3.50;98.40;;;;;;5012559;28;20037;-75
2022/12/10 13:04:56;;;;;;;30.67;13.32;;;3.50;98.30;;;;;;5010726;28;20095;-75